SWA789 KHOU-KMIA
Flight info
| Callsign | SWA789 |
|---|---|
| Flight time | 1h 54m |
| Altitude | 37000 |
| Route | ELOCO6 LLA LEV Y290 GAWKS FROGZ5 |
| Aircraft | B738/M-SDE2E3FGHIRWXY/LB1 |
Departure
| Time | 2026-05-05 15:20 |
|---|---|
| Airport | William P. Hobby Airport (KHOU) |
Arrival
| Time | 2026-05-05 17:15 |
|---|---|
| Airport | Miami International Airport (KMIA) |
| Time | Latitude | Longitude | Altitude | Speed | Heading |
|---|---|---|---|---|---|
| 2026-05-05 14:57 | 29.65241 | -95.27617 | 42 ft | 0 kts | 22° |
| 2026-05-05 15:11 | 29.65233 | -95.27621 | 51 ft | 3 kts | 19° |
| 2026-05-05 15:11 | 29.65220 | -95.27626 | 47 ft | 3 kts | 18° |
| 2026-05-05 15:11 | 29.65201 | -95.27632 | 48 ft | 3 kts | 12° |
| 2026-05-05 15:12 | 29.65182 | -95.27635 | 49 ft | 3 kts | 0° |
| 2026-05-05 15:12 | 29.65160 | -95.27631 | 51 ft | 2 kts | 327° |
| 2026-05-05 15:12 | 29.65153 | -95.27624 | 49 ft | 2 kts | 304° |
| 2026-05-05 15:12 | 29.65146 | -95.27606 | 51 ft | 1 kts | 277° |
| 2026-05-05 15:13 | 29.65145 | -95.27596 | 51 ft | 1 kts | 271° |
| 2026-05-05 15:13 | 29.65145 | -95.27590 | 49 ft | 0 kts | 269° |
| 2026-05-05 15:14 | 29.65145 | -95.27593 | 51 ft | 2 kts | 269° |
| 2026-05-05 15:15 | 29.65144 | -95.27645 | 51 ft | 9 kts | 269° |
| 2026-05-05 15:15 | 29.65143 | -95.27719 | 51 ft | 9 kts | 269° |
| 2026-05-05 15:15 | 29.65142 | -95.27792 | 51 ft | 9 kts | 269° |
| 2026-05-05 15:15 | 29.65143 | -95.27862 | 51 ft | 9 kts | 284° |
| 2026-05-05 15:16 | 29.65180 | -95.27917 | 51 ft | 9 kts | 313° |
| 2026-05-05 15:16 | 29.65187 | -95.27925 | 51 ft | 0 kts | 315° |
| 2026-05-05 15:17 | 29.65208 | -95.27948 | 49 ft | 9 kts | 316° |
| 2026-05-05 15:17 | 29.65254 | -95.28001 | 51 ft | 9 kts | 314° |
| 2026-05-05 15:17 | 29.65299 | -95.28055 | 51 ft | 9 kts | 313° |
| 2026-05-05 15:17 | 29.65339 | -95.28110 | 49 ft | 9 kts | 295° |
| 2026-05-05 15:18 | 29.65333 | -95.28178 | 51 ft | 9 kts | 253° |
| 2026-05-05 15:18 | 29.65316 | -95.28245 | 51 ft | 9 kts | 253° |
| 2026-05-05 15:18 | 29.65299 | -95.28310 | 51 ft | 8 kts | 251° |
| 2026-05-05 15:18 | 29.65265 | -95.28361 | 51 ft | 8 kts | 210° |
| 2026-05-05 15:19 | 29.65218 | -95.28336 | 51 ft | 8 kts | 133° |
| 2026-05-05 15:19 | 29.65097 | -95.28193 | 51 ft | 59 kts | 134° |
| 2026-05-05 15:19 | 29.64635 | -95.27645 | 51 ft | 129 kts | 134° |
| 2026-05-05 15:19 | 29.63900 | -95.26755 | 236 ft | 168 kts | 133° |
| 2026-05-05 15:20 | 29.63047 | -95.25646 | 542 ft | 207 kts | 136° |
| 2026-05-05 15:20 | 29.61999 | -95.24377 | 1045 ft | 214 kts | 139° |
| 2026-05-05 15:20 | 29.60954 | -95.23280 | 2047 ft | 201 kts | 143° |
| 2026-05-05 15:20 | 29.59840 | -95.22191 | 2328 ft | 222 kts | 146° |
| 2026-05-05 15:21 | 29.58836 | -95.20693 | 2490 ft | 258 kts | 114° |
| 2026-05-05 15:21 | 29.58660 | -95.18557 | 3092 ft | 275 kts | 93° |
| 2026-05-05 15:21 | 29.58716 | -95.16371 | 3981 ft | 276 kts | 92° |
| 2026-05-05 15:21 | 29.58754 | -95.14165 | 4711 ft | 283 kts | 93° |
| 2026-05-05 15:22 | 29.58769 | -95.11885 | 5488 ft | 287 kts | 93° |
| 2026-05-05 15:22 | 29.58765 | -95.09568 | 6239 ft | 294 kts | 92° |
| 2026-05-05 15:22 | 29.58747 | -95.07187 | 6960 ft | 298 kts | 92° |
| 2026-05-05 15:22 | 29.58723 | -95.04794 | 7669 ft | 304 kts | 92° |
| 2026-05-05 15:23 | 29.58712 | -95.02359 | 8392 ft | 305 kts | 88° |
| 2026-05-05 15:23 | 29.59136 | -94.99970 | 9156 ft | 309 kts | 72° |
| 2026-05-05 15:23 | 29.59809 | -94.97605 | 9876 ft | 312 kts | 70° |
| 2026-05-05 15:23 | 29.60501 | -94.95232 | 10594 ft | 319 kts | 70° |
| 2026-05-05 15:24 | 29.61222 | -94.92724 | 10859 ft | 340 kts | 70° |
| 2026-05-05 15:24 | 29.61957 | -94.90102 | 11369 ft | 349 kts | 70° |
| 2026-05-05 15:24 | 29.62694 | -94.87424 | 12024 ft | 353 kts | 70° |
| 2026-05-05 15:24 | 29.63436 | -94.84719 | 12689 ft | 357 kts | 69° |
| 2026-05-05 15:25 | 29.64274 | -94.82020 | 13375 ft | 360 kts | 64° |
| 2026-05-05 15:25 | 29.65235 | -94.79334 | 14015 ft | 364 kts | 63° |
| 2026-05-05 15:25 | 29.66237 | -94.76633 | 14591 ft | 371 kts | 63° |
| 2026-05-05 15:25 | 29.67253 | -94.73884 | 15185 ft | 377 kts | 63° |
| 2026-05-05 15:26 | 29.68272 | -94.71096 | 15823 ft | 381 kts | 63° |
| 2026-05-05 15:26 | 29.69302 | -94.68248 | 16415 ft | 388 kts | 64° |
| 2026-05-05 15:26 | 29.70338 | -94.65362 | 16999 ft | 394 kts | 64° |
| 2026-05-05 15:26 | 29.71377 | -94.62460 | 17593 ft | 400 kts | 64° |
| 2026-05-05 15:27 | 29.72442 | -94.59480 | 18183 ft | 405 kts | 64° |
| 2026-05-05 15:27 | 29.73442 | -94.56424 | 18684 ft | 413 kts | 71° |
| 2026-05-05 15:27 | 29.73992 | -94.53149 | 19212 ft | 421 kts | 82° |
| 2026-05-05 15:27 | 29.74054 | -94.49762 | 19742 ft | 427 kts | 94° |
| 2026-05-05 15:28 | 29.73680 | -94.46355 | 20264 ft | 432 kts | 98° |
| 2026-05-05 15:28 | 29.73197 | -94.42912 | 20764 ft | 438 kts | 99° |
| 2026-05-05 15:28 | 29.72721 | -94.39435 | 21259 ft | 443 kts | 98° |
| 2026-05-05 15:28 | 29.72273 | -94.35901 | 21758 ft | 448 kts | 97° |
| 2026-05-05 15:29 | 29.71848 | -94.32337 | 22258 ft | 453 kts | 96° |
| 2026-05-05 15:29 | 29.71444 | -94.28720 | 22734 ft | 458 kts | 96° |
| 2026-05-05 15:29 | 29.71046 | -94.25067 | 23213 ft | 463 kts | 96° |
| 2026-05-05 15:29 | 29.70644 | -94.21381 | 23651 ft | 467 kts | 96° |
| 2026-05-05 15:30 | 29.70232 | -94.17657 | 24072 ft | 470 kts | 96° |
| 2026-05-05 15:30 | 29.69814 | -94.13915 | 24515 ft | 473 kts | 96° |
| 2026-05-05 15:30 | 29.69396 | -94.10205 | 24956 ft | 475 kts | 96° |
| 2026-05-05 15:30 | 29.68970 | -94.06428 | 25382 ft | 478 kts | 96° |
| 2026-05-05 15:31 | 29.68595 | -94.02619 | 25785 ft | 481 kts | 91° |
| 2026-05-05 15:31 | 29.68470 | -93.98771 | 26181 ft | 483 kts | 88° |
| 2026-05-05 15:31 | 29.68444 | -93.94894 | 26587 ft | 485 kts | 87° |
| 2026-05-05 15:31 | 29.68454 | -93.91007 | 26983 ft | 488 kts | 87° |
| 2026-05-05 15:32 | 29.68466 | -93.87094 | 27366 ft | 491 kts | 87° |
| 2026-05-05 15:32 | 29.68465 | -93.83156 | 27750 ft | 494 kts | 87° |
| 2026-05-05 15:32 | 29.68449 | -93.79197 | 28123 ft | 497 kts | 88° |
| 2026-05-05 15:32 | 29.68419 | -93.75217 | 28495 ft | 500 kts | 88° |
| 2026-05-05 15:33 | 29.68381 | -93.71208 | 28855 ft | 502 kts | 88° |
| 2026-05-05 15:33 | 29.68336 | -93.67175 | 29209 ft | 505 kts | 88° |
| 2026-05-05 15:33 | 29.68290 | -93.63121 | 29564 ft | 508 kts | 88° |
| 2026-05-05 15:33 | 29.68242 | -93.59051 | 29897 ft | 511 kts | 88° |
| 2026-05-05 15:34 | 29.68193 | -93.54954 | 30192 ft | 514 kts | 88° |
| 2026-05-05 15:34 | 29.68143 | -93.50834 | 30487 ft | 516 kts | 88° |
| 2026-05-05 15:34 | 29.68092 | -93.46700 | 30784 ft | 517 kts | 88° |
| 2026-05-05 15:34 | 29.68041 | -93.42563 | 31085 ft | 519 kts | 88° |
| 2026-05-05 15:35 | 29.67988 | -93.38418 | 31372 ft | 521 kts | 88° |
| 2026-05-05 15:35 | 29.67933 | -93.34233 | 31651 ft | 523 kts | 88° |
| 2026-05-05 15:35 | 29.67877 | -93.30050 | 31935 ft | 524 kts | 88° |
| 2026-05-05 15:35 | 29.67820 | -93.25864 | 32339 ft | 522 kts | 88° |
| 2026-05-05 15:36 | 29.67760 | -93.21705 | 32786 ft | 519 kts | 88° |
| 2026-05-05 15:36 | 29.67700 | -93.17559 | 33203 ft | 518 kts | 88° |
| 2026-05-05 15:36 | 29.67639 | -93.13423 | 33563 ft | 517 kts | 88° |
| 2026-05-05 15:36 | 29.67578 | -93.09292 | 33914 ft | 516 kts | 88° |
| 2026-05-05 15:37 | 29.67515 | -93.05170 | 34247 ft | 515 kts | 88° |
| 2026-05-05 15:37 | 29.67451 | -93.01057 | 34546 ft | 514 kts | 88° |
| 2026-05-05 15:37 | 29.67386 | -92.96943 | 34815 ft | 514 kts | 88° |
| 2026-05-05 15:37 | 29.67320 | -92.92833 | 35075 ft | 514 kts | 88° |
| 2026-05-05 15:38 | 29.67252 | -92.88725 | 35358 ft | 514 kts | 88° |
| 2026-05-05 15:38 | 29.67183 | -92.84623 | 35647 ft | 513 kts | 88° |
| 2026-05-05 15:38 | 29.67113 | -92.80517 | 35908 ft | 513 kts | 88° |
| 2026-05-05 15:38 | 29.67042 | -92.76415 | 36157 ft | 513 kts | 88° |
| 2026-05-05 15:39 | 29.66969 | -92.72319 | 36420 ft | 513 kts | 88° |
| 2026-05-05 15:39 | 29.66895 | -92.68219 | 36689 ft | 512 kts | 89° |
| 2026-05-05 15:39 | 29.66820 | -92.64127 | 36937 ft | 512 kts | 89° |
| 2026-05-05 15:40 | 29.66666 | -92.55892 | 36971 ft | 518 kts | 89° |
| 2026-05-05 15:40 | 29.66506 | -92.47670 | 36955 ft | 515 kts | 89° |
| 2026-05-05 15:41 | 29.66339 | -92.39508 | 36959 ft | 510 kts | 90° |
| 2026-05-05 15:41 | 29.65251 | -92.31447 | 36981 ft | 510 kts | 103° |
| 2026-05-05 15:42 | 29.63542 | -92.23531 | 36969 ft | 510 kts | 104° |
| 2026-05-05 15:42 | 29.61819 | -92.15622 | 36970 ft | 510 kts | 103° |
| 2026-05-05 15:43 | 29.60144 | -92.07691 | 36975 ft | 511 kts | 103° |
| 2026-05-05 15:43 | 29.58489 | -91.99739 | 36974 ft | 512 kts | 103° |
| 2026-05-05 15:44 | 29.56832 | -91.91778 | 36971 ft | 513 kts | 103° |
| 2026-05-05 15:44 | 29.55164 | -91.83809 | 36980 ft | 514 kts | 103° |
| 2026-05-05 15:45 | 29.53486 | -91.75828 | 36975 ft | 515 kts | 103° |
| 2026-05-05 15:45 | 29.51808 | -91.67877 | 36978 ft | 515 kts | 103° |
| 2026-05-05 15:46 | 29.50117 | -91.59886 | 36985 ft | 516 kts | 103° |
| 2026-05-05 15:46 | 29.48418 | -91.51882 | 36995 ft | 516 kts | 103° |
| 2026-05-05 15:47 | 29.46714 | -91.43881 | 36993 ft | 516 kts | 103° |
| 2026-05-05 15:47 | 29.45006 | -91.35886 | 36993 ft | 516 kts | 103° |
| 2026-05-05 15:48 | 29.43293 | -91.27893 | 36993 ft | 516 kts | 103° |
| 2026-05-05 15:48 | 29.41575 | -91.19902 | 36994 ft | 516 kts | 103° |
| 2026-05-05 15:49 | 29.39853 | -91.11917 | 36994 ft | 516 kts | 103° |
| 2026-05-05 15:49 | 29.38126 | -91.03933 | 36993 ft | 516 kts | 103° |
| 2026-05-05 15:50 | 29.36394 | -90.95946 | 36995 ft | 516 kts | 103° |
| 2026-05-05 15:50 | 29.34656 | -90.87962 | 37002 ft | 516 kts | 103° |
| 2026-05-05 15:51 | 29.32914 | -90.79982 | 37006 ft | 516 kts | 103° |
| 2026-05-05 15:51 | 29.31166 | -90.71998 | 37010 ft | 517 kts | 103° |
| 2026-05-05 15:52 | 29.29412 | -90.64016 | 37012 ft | 517 kts | 103° |
| 2026-05-05 15:52 | 29.27662 | -90.56070 | 37010 ft | 517 kts | 103° |
| 2026-05-05 15:53 | 29.25895 | -90.48075 | 37017 ft | 518 kts | 103° |
| 2026-05-05 15:53 | 29.24124 | -90.40083 | 37019 ft | 518 kts | 103° |
| 2026-05-05 15:54 | 29.22348 | -90.32095 | 37020 ft | 518 kts | 103° |
| 2026-05-05 15:54 | 29.20565 | -90.24098 | 37024 ft | 518 kts | 103° |
| 2026-05-05 15:55 | 29.18779 | -90.16107 | 37018 ft | 518 kts | 103° |
| 2026-05-05 15:55 | 29.16789 | -90.08178 | 37011 ft | 519 kts | 112° |
| 2026-05-05 15:56 | 29.13977 | -90.00591 | 37019 ft | 518 kts | 114° |
| 2026-05-05 15:56 | 29.11065 | -89.93059 | 37024 ft | 518 kts | 114° |
| 2026-05-05 15:57 | 29.08204 | -89.85558 | 37025 ft | 518 kts | 114° |
| 2026-05-05 15:57 | 29.05341 | -89.77952 | 37025 ft | 517 kts | 113° |
| 2026-05-05 15:58 | 29.02523 | -89.70446 | 37040 ft | 517 kts | 114° |
| 2026-05-05 15:58 | 28.99663 | -89.62850 | 37025 ft | 517 kts | 114° |
| 2026-05-05 15:59 | 28.96821 | -89.55325 | 37029 ft | 516 kts | 114° |
| 2026-05-05 15:59 | 28.94453 | -89.49067 | 37042 ft | 516 kts | 114° |
| 2026-05-05 16:00 | 28.91141 | -89.40335 | 37037 ft | 516 kts | 114° |
| 2026-05-05 16:00 | 28.88752 | -89.34050 | 37037 ft | 515 kts | 114° |
| 2026-05-05 16:01 | 28.85898 | -89.26553 | 37040 ft | 515 kts | 114° |
| 2026-05-05 16:01 | 28.83040 | -89.19064 | 37048 ft | 514 kts | 114° |
| 2026-05-05 16:02 | 28.80202 | -89.11635 | 37037 ft | 514 kts | 114° |
| 2026-05-05 16:02 | 28.77340 | -89.04161 | 37043 ft | 515 kts | 114° |
| 2026-05-05 16:03 | 28.74472 | -88.96687 | 37047 ft | 515 kts | 114° |
| 2026-05-05 16:03 | 28.71599 | -88.89215 | 37038 ft | 515 kts | 113° |
| 2026-05-05 16:04 | 28.68723 | -88.81751 | 37063 ft | 514 kts | 113° |
| 2026-05-05 16:04 | 28.65843 | -88.74290 | 37045 ft | 514 kts | 113° |
| 2026-05-05 16:05 | 28.62960 | -88.66835 | 37060 ft | 514 kts | 113° |
| 2026-05-05 16:05 | 28.60075 | -88.59390 | 37049 ft | 514 kts | 113° |
| 2026-05-05 16:06 | 28.57185 | -88.51948 | 37059 ft | 514 kts | 113° |
| 2026-05-05 16:06 | 28.54292 | -88.44511 | 37052 ft | 514 kts | 113° |
| 2026-05-05 16:07 | 28.51399 | -88.37090 | 37062 ft | 514 kts | 113° |
| 2026-05-05 16:07 | 28.48502 | -88.29671 | 37059 ft | 513 kts | 113° |
| 2026-05-05 16:08 | 28.45601 | -88.22257 | 37064 ft | 513 kts | 113° |
| 2026-05-05 16:08 | 28.42718 | -88.14903 | 37057 ft | 513 kts | 113° |
| 2026-05-05 16:09 | 28.39818 | -88.07514 | 37064 ft | 512 kts | 113° |
| 2026-05-05 16:09 | 28.37073 | -88.00006 | 37054 ft | 511 kts | 108° |
| 2026-05-05 16:10 | 28.34895 | -87.92407 | 37074 ft | 509 kts | 105° |
| 2026-05-05 16:10 | 28.32780 | -87.84725 | 37060 ft | 509 kts | 105° |
| 2026-05-05 16:11 | 28.30615 | -87.77078 | 37066 ft | 509 kts | 106° |
| 2026-05-05 16:12 | 28.26190 | -87.61830 | 37067 ft | 508 kts | 107° |
| 2026-05-05 16:13 | 28.20643 | -87.42818 | 37067 ft | 508 kts | 107° |
| 2026-05-05 16:13 | 28.18419 | -87.35222 | 37059 ft | 508 kts | 107° |
| 2026-05-05 16:14 | 28.13964 | -87.20056 | 37065 ft | 507 kts | 107° |
| 2026-05-05 16:15 | 28.09496 | -87.04914 | 37058 ft | 506 kts | 107° |
| 2026-05-05 16:16 | 28.05030 | -86.89845 | 37062 ft | 506 kts | 107° |
| 2026-05-05 16:17 | 28.01660 | -86.78514 | 37061 ft | 506 kts | 107° |
| 2026-05-05 16:18 | 27.98343 | -86.67188 | 37068 ft | 506 kts | 106° |
| 2026-05-05 16:19 | 27.95075 | -86.55843 | 37071 ft | 505 kts | 107° |
| 2026-05-05 16:19 | 27.91789 | -86.44518 | 37063 ft | 506 kts | 107° |
| 2026-05-05 16:20 | 27.87384 | -86.29427 | 37060 ft | 505 kts | 107° |
| 2026-05-05 16:22 | 27.81858 | -86.10585 | 37070 ft | 505 kts | 107° |
| 2026-05-05 16:23 | 27.77424 | -85.95542 | 37075 ft | 504 kts | 107° |
| 2026-05-05 16:23 | 27.74093 | -85.84284 | 37063 ft | 504 kts | 107° |
| 2026-05-05 16:24 | 27.71867 | -85.76785 | 37073 ft | 504 kts | 107° |
| 2026-05-05 16:25 | 27.68525 | -85.65552 | 37072 ft | 503 kts | 107° |
| 2026-05-05 16:25 | 27.65192 | -85.54387 | 37067 ft | 503 kts | 108° |
| 2026-05-05 16:26 | 27.60718 | -85.39453 | 37067 ft | 502 kts | 108° |
| 2026-05-05 16:27 | 27.58674 | -85.31932 | 37063 ft | 501 kts | 99° |
| 2026-05-05 16:27 | 27.57405 | -85.24233 | 37068 ft | 500 kts | 98° |
| 2026-05-05 16:28 | 27.56118 | -85.16535 | 37075 ft | 500 kts | 99° |
| 2026-05-05 16:28 | 27.54768 | -85.08846 | 37069 ft | 500 kts | 99° |
| 2026-05-05 16:29 | 27.53421 | -85.01165 | 37075 ft | 500 kts | 99° |
| 2026-05-05 16:29 | 27.52072 | -84.93473 | 37070 ft | 500 kts | 99° |
| 2026-05-05 16:30 | 27.50722 | -84.85793 | 37071 ft | 500 kts | 99° |
| 2026-05-05 16:30 | 27.49369 | -84.78127 | 37070 ft | 500 kts | 99° |
| 2026-05-05 16:31 | 27.47994 | -84.70440 | 37071 ft | 500 kts | 100° |
| 2026-05-05 16:31 | 27.46612 | -84.62777 | 37068 ft | 500 kts | 100° |
| 2026-05-05 16:32 | 27.45229 | -84.55112 | 37074 ft | 499 kts | 100° |
| 2026-05-05 16:32 | 27.43851 | -84.47497 | 37067 ft | 499 kts | 100° |
| 2026-05-05 16:33 | 27.42453 | -84.39792 | 37072 ft | 499 kts | 100° |
| 2026-05-05 16:33 | 27.41071 | -84.32191 | 37062 ft | 499 kts | 100° |
| 2026-05-05 16:34 | 27.39684 | -84.24560 | 37063 ft | 499 kts | 100° |
| 2026-05-05 16:34 | 27.38288 | -84.16895 | 37071 ft | 499 kts | 100° |
| 2026-05-05 16:35 | 27.36889 | -84.09247 | 37078 ft | 499 kts | 101° |
| 2026-05-05 16:35 | 27.35489 | -84.01615 | 37075 ft | 499 kts | 101° |
| 2026-05-05 16:36 | 27.34081 | -83.93967 | 37085 ft | 499 kts | 101° |
| 2026-05-05 16:36 | 27.32670 | -83.86325 | 37073 ft | 499 kts | 101° |
| 2026-05-05 16:37 | 27.31253 | -83.78680 | 37086 ft | 499 kts | 101° |
| 2026-05-05 16:37 | 27.29832 | -83.71034 | 37080 ft | 499 kts | 101° |
| 2026-05-05 16:38 | 27.28409 | -83.63400 | 37079 ft | 500 kts | 101° |
| 2026-05-05 16:38 | 27.27007 | -83.55904 | 37082 ft | 500 kts | 101° |
| 2026-05-05 16:39 | 27.26989 | -83.55806 | 37076 ft | 500 kts | 101° |
| 2026-05-05 16:39 | 27.25840 | -83.49683 | 37074 ft | 500 kts | 101° |
| 2026-05-05 16:40 | 27.24402 | -83.42036 | 37078 ft | 500 kts | 101° |
| 2026-05-05 16:40 | 27.22960 | -83.34394 | 37077 ft | 500 kts | 101° |
| 2026-05-05 16:41 | 27.21514 | -83.26751 | 37079 ft | 500 kts | 102° |
| 2026-05-05 16:41 | 27.20061 | -83.19100 | 37072 ft | 500 kts | 102° |
| 2026-05-05 16:42 | 27.18607 | -83.11456 | 37078 ft | 500 kts | 102° |
| 2026-05-05 16:42 | 27.17155 | -83.03820 | 37071 ft | 500 kts | 102° |
| 2026-05-05 16:43 | 27.15715 | -82.96179 | 37072 ft | 500 kts | 102° |
| 2026-05-05 16:43 | 27.14269 | -82.88534 | 37067 ft | 500 kts | 102° |
| 2026-05-05 16:44 | 27.13537 | -82.84913 | 37065 ft | 500 kts | 108° |
| 2026-05-05 16:46 | 27.12295 | -82.81594 | 37032 ft | 497 kts | 123° |
| 2026-05-05 16:47 | 27.10503 | -82.78269 | 36808 ft | 499 kts | 126° |
| 2026-05-05 16:47 | 27.08627 | -82.74998 | 36544 ft | 496 kts | 126° |
| 2026-05-05 16:47 | 27.06763 | -82.71776 | 36285 ft | 492 kts | 126° |
| 2026-05-05 16:47 | 27.04925 | -82.68551 | 36035 ft | 489 kts | 125° |
| 2026-05-05 16:48 | 27.03724 | -82.66413 | 35869 ft | 487 kts | 125° |
| 2026-05-05 16:48 | 27.01941 | -82.63200 | 35632 ft | 485 kts | 125° |
| 2026-05-05 16:48 | 27.00174 | -82.59989 | 35390 ft | 482 kts | 124° |
| 2026-05-05 16:48 | 26.98419 | -82.56792 | 35148 ft | 480 kts | 124° |
| 2026-05-05 16:49 | 26.96670 | -82.53609 | 34914 ft | 479 kts | 124° |
| 2026-05-05 16:49 | 26.94929 | -82.50447 | 34684 ft | 477 kts | 124° |
| 2026-05-05 16:49 | 26.93191 | -82.47297 | 34413 ft | 472 kts | 124° |
| 2026-05-05 16:49 | 26.91405 | -82.44240 | 34018 ft | 466 kts | 133° |
| 2026-05-05 16:50 | 26.89148 | -82.41690 | 33547 ft | 457 kts | 144° |
| 2026-05-05 16:50 | 26.86733 | -82.39394 | 33096 ft | 454 kts | 146° |
| 2026-05-05 16:50 | 26.84301 | -82.37153 | 32631 ft | 451 kts | 146° |
| 2026-05-05 16:50 | 26.81890 | -82.34929 | 32182 ft | 449 kts | 146° |
| 2026-05-05 16:51 | 26.79493 | -82.32690 | 31748 ft | 447 kts | 146° |
| 2026-05-05 16:51 | 26.77128 | -82.30455 | 31319 ft | 445 kts | 145° |
| 2026-05-05 16:51 | 26.74776 | -82.28213 | 30876 ft | 443 kts | 145° |
| 2026-05-05 16:51 | 26.72433 | -82.25972 | 30450 ft | 442 kts | 145° |
| 2026-05-05 16:52 | 26.70130 | -82.23766 | 29996 ft | 441 kts | 145° |
| 2026-05-05 16:52 | 26.67809 | -82.21544 | 29508 ft | 439 kts | 145° |
| 2026-05-05 16:52 | 26.65499 | -82.19333 | 29046 ft | 437 kts | 145° |
| 2026-05-05 16:52 | 26.63189 | -82.17127 | 28612 ft | 435 kts | 145° |
| 2026-05-05 16:53 | 26.60900 | -82.14940 | 28178 ft | 432 kts | 145° |
| 2026-05-05 16:53 | 26.58622 | -82.12766 | 27757 ft | 429 kts | 145° |
| 2026-05-05 16:53 | 26.56361 | -82.10610 | 27341 ft | 427 kts | 145° |
| 2026-05-05 16:53 | 26.54103 | -82.08457 | 26926 ft | 425 kts | 145° |
| 2026-05-05 16:54 | 26.51867 | -82.06308 | 26509 ft | 423 kts | 144° |
| 2026-05-05 16:54 | 26.49678 | -82.04125 | 26101 ft | 421 kts | 143° |
| 2026-05-05 16:54 | 26.47515 | -82.01931 | 25692 ft | 419 kts | 142° |
| 2026-05-05 16:54 | 26.45359 | -81.99739 | 25281 ft | 417 kts | 142° |
| 2026-05-05 16:55 | 26.43219 | -81.97567 | 24867 ft | 416 kts | 142° |
| 2026-05-05 16:55 | 26.41080 | -81.95405 | 24460 ft | 414 kts | 143° |
| 2026-05-05 16:55 | 26.38952 | -81.93260 | 24038 ft | 413 kts | 143° |
| 2026-05-05 16:55 | 26.36824 | -81.91121 | 23623 ft | 411 kts | 143° |
| 2026-05-05 16:56 | 26.34699 | -81.88986 | 23160 ft | 409 kts | 143° |
| 2026-05-05 16:56 | 26.32596 | -81.86873 | 22728 ft | 406 kts | 143° |
| 2026-05-05 16:56 | 26.30506 | -81.84774 | 22316 ft | 402 kts | 143° |
| 2026-05-05 16:56 | 26.28434 | -81.82695 | 21916 ft | 399 kts | 143° |
| 2026-05-05 16:57 | 26.26383 | -81.80640 | 21537 ft | 396 kts | 143° |
| 2026-05-05 16:57 | 26.24355 | -81.78572 | 21145 ft | 395 kts | 139° |
| 2026-05-05 16:57 | 26.22759 | -81.76072 | 20754 ft | 400 kts | 120° |
| 2026-05-05 16:57 | 26.21546 | -81.73300 | 20388 ft | 397 kts | 118° |
| 2026-05-05 16:58 | 26.20380 | -81.70522 | 20014 ft | 395 kts | 118° |
| 2026-05-05 16:58 | 26.19239 | -81.67795 | 19630 ft | 393 kts | 118° |
| 2026-05-05 16:58 | 26.18077 | -81.65051 | 19236 ft | 391 kts | 118° |
| 2026-05-05 16:58 | 26.16908 | -81.62324 | 18854 ft | 389 kts | 119° |
| 2026-05-05 16:59 | 26.15737 | -81.59616 | 18471 ft | 388 kts | 119° |
| 2026-05-05 16:59 | 26.14566 | -81.56922 | 18056 ft | 386 kts | 119° |
| 2026-05-05 16:59 | 26.13399 | -81.54245 | 17655 ft | 384 kts | 119° |
| 2026-05-05 16:59 | 26.12236 | -81.51580 | 17268 ft | 381 kts | 119° |
| 2026-05-05 17:00 | 26.11085 | -81.48943 | 16889 ft | 378 kts | 119° |
| 2026-05-05 17:00 | 26.09940 | -81.46321 | 16507 ft | 375 kts | 119° |
| 2026-05-05 17:00 | 26.08806 | -81.43725 | 16151 ft | 372 kts | 119° |
| 2026-05-05 17:00 | 26.07677 | -81.41144 | 15793 ft | 369 kts | 119° |
| 2026-05-05 17:01 | 26.06560 | -81.38588 | 15429 ft | 367 kts | 119° |
| 2026-05-05 17:01 | 26.05448 | -81.36041 | 15081 ft | 364 kts | 119° |
| 2026-05-05 17:01 | 26.04348 | -81.33514 | 14726 ft | 362 kts | 119° |
| 2026-05-05 17:01 | 26.03251 | -81.30994 | 14381 ft | 361 kts | 119° |
| 2026-05-05 17:02 | 26.02158 | -81.28487 | 14004 ft | 360 kts | 119° |
| 2026-05-05 17:02 | 26.01069 | -81.25991 | 13620 ft | 359 kts | 119° |
| 2026-05-05 17:02 | 25.99983 | -81.23502 | 13247 ft | 356 kts | 119° |
| 2026-05-05 17:02 | 25.98905 | -81.21035 | 12901 ft | 354 kts | 119° |
| 2026-05-05 17:03 | 25.97832 | -81.18576 | 12530 ft | 351 kts | 119° |
| 2026-05-05 17:03 | 25.96770 | -81.16148 | 12189 ft | 348 kts | 119° |
| 2026-05-05 17:03 | 25.95718 | -81.13743 | 11856 ft | 345 kts | 119° |
| 2026-05-05 17:03 | 25.94673 | -81.11357 | 11523 ft | 342 kts | 118° |
| 2026-05-05 17:04 | 25.93648 | -81.09018 | 11199 ft | 339 kts | 118° |
| 2026-05-05 17:04 | 25.92620 | -81.06670 | 10864 ft | 336 kts | 118° |
| 2026-05-05 17:04 | 25.91601 | -81.04348 | 10545 ft | 333 kts | 118° |
| 2026-05-05 17:04 | 25.90626 | -81.02022 | 10226 ft | 331 kts | 116° |
| 2026-05-05 17:05 | 25.89733 | -80.99678 | 9936 ft | 328 kts | 115° |
| 2026-05-05 17:05 | 25.88879 | -80.97387 | 9933 ft | 313 kts | 115° |
| 2026-05-05 17:05 | 25.88054 | -80.95199 | 9890 ft | 302 kts | 115° |
| 2026-05-05 17:05 | 25.87244 | -80.93074 | 9654 ft | 297 kts | 115° |
| 2026-05-05 17:06 | 25.86436 | -80.90968 | 9351 ft | 296 kts | 115° |
| 2026-05-05 17:06 | 25.85628 | -80.88868 | 9057 ft | 295 kts | 115° |
| 2026-05-05 17:06 | 25.84827 | -80.86785 | 8797 ft | 292 kts | 115° |
| 2026-05-05 17:06 | 25.84035 | -80.84724 | 8547 ft | 290 kts | 115° |
| 2026-05-05 17:07 | 25.83246 | -80.82675 | 8258 ft | 289 kts | 115° |
| 2026-05-05 17:07 | 25.82458 | -80.80627 | 7991 ft | 287 kts | 115° |
| 2026-05-05 17:07 | 25.81688 | -80.78630 | 7740 ft | 285 kts | 114° |
| 2026-05-05 17:07 | 25.80901 | -80.76587 | 7460 ft | 283 kts | 114° |
| 2026-05-05 17:08 | 25.80129 | -80.74583 | 7183 ft | 282 kts | 114° |
| 2026-05-05 17:08 | 25.79369 | -80.72613 | 6947 ft | 279 kts | 114° |
| 2026-05-05 17:08 | 25.78606 | -80.70634 | 6682 ft | 279 kts | 115° |
| 2026-05-05 17:08 | 25.77842 | -80.68659 | 6435 ft | 277 kts | 114° |
| 2026-05-05 17:09 | 25.77587 | -80.67998 | 6312 ft | 277 kts | 114° |
| 2026-05-05 17:09 | 25.77584 | -80.67989 | 6312 ft | 277 kts | 114° |
| 2026-05-05 17:09 | 25.77098 | -80.66010 | 5980 ft | 278 kts | 91° |
| 2026-05-05 17:09 | 25.77174 | -80.63889 | 5746 ft | 275 kts | 86° |
| 2026-05-05 17:10 | 25.77302 | -80.61773 | 5531 ft | 273 kts | 85° |
| 2026-05-05 17:10 | 25.77430 | -80.59672 | 5316 ft | 272 kts | 86° |
| 2026-05-05 17:10 | 25.77529 | -80.57592 | 5121 ft | 268 kts | 86° |
| 2026-05-05 17:10 | 25.77614 | -80.55565 | 5015 ft | 259 kts | 86° |
| 2026-05-05 17:11 | 25.77693 | -80.53604 | 4927 ft | 250 kts | 86° |
| 2026-05-05 17:11 | 25.77786 | -80.51714 | 4814 ft | 239 kts | 85° |
| 2026-05-05 17:11 | 25.77868 | -80.49903 | 4677 ft | 233 kts | 85° |
| 2026-05-05 17:11 | 25.77940 | -80.48125 | 4529 ft | 229 kts | 85° |
| 2026-05-05 17:12 | 25.78008 | -80.46373 | 4430 ft | 221 kts | 85° |
| 2026-05-05 17:12 | 25.78074 | -80.44712 | 4329 ft | 211 kts | 85° |
| 2026-05-05 17:12 | 25.78125 | -80.43063 | 3854 ft | 219 kts | 86° |
| 2026-05-05 17:12 | 25.78163 | -80.41339 | 3344 ft | 226 kts | 86° |
| 2026-05-05 17:13 | 25.78199 | -80.39622 | 2851 ft | 221 kts | 84° |
| 2026-05-05 17:13 | 25.78286 | -80.37926 | 2289 ft | 219 kts | 84° |
| 2026-05-05 17:13 | 25.78382 | -80.36254 | 1681 ft | 215 kts | 83° |
| 2026-05-05 17:13 | 25.78481 | -80.34682 | 1119 ft | 198 kts | 84° |
| 2026-05-05 17:14 | 25.78558 | -80.33213 | 654 ft | 185 kts | 87° |
| 2026-05-05 17:14 | 25.78604 | -80.31852 | 249 ft | 170 kts | 89° |
| 2026-05-05 17:14 | 25.78645 | -80.30644 | 17 ft | 151 kts | 88° |
| 2026-05-05 17:14 | 25.78691 | -80.29570 | 14 ft | 118 kts | 88° |
| 2026-05-05 17:15 | 25.78714 | -80.28983 | 14 ft | 48 kts | 87° |
| 2026-05-05 17:15 | 25.78782 | -80.28718 | 14 ft | 7 kts | 46° |
| 2026-05-05 17:15 | 25.78816 | -80.28682 | 14 ft | 7 kts | 41° |
| 2026-05-05 17:15 | 25.78848 | -80.28652 | 14 ft | 5 kts | 40° |
| 2026-05-05 17:16 | 25.78877 | -80.28627 | 14 ft | 5 kts | 38° |
| 2026-05-05 17:16 | 25.78905 | -80.28603 | 14 ft | 5 kts | 37° |
| 2026-05-05 17:16 | 25.78934 | -80.28580 | 14 ft | 5 kts | 35° |
| 2026-05-05 17:16 | 25.78961 | -80.28559 | 14 ft | 0 kts | 34° |
| 2026-05-05 17:18 | 25.78962 | -80.28558 | 14 ft | 1 kts | 34° |
| 2026-05-05 17:19 | 25.78987 | -80.28539 | 14 ft | 7 kts | 34° |
| 2026-05-05 17:19 | 25.79034 | -80.28503 | 14 ft | 9 kts | 34° |
| 2026-05-05 17:19 | 25.79084 | -80.28467 | 14 ft | 8 kts | 31° |
| 2026-05-05 17:19 | 25.79133 | -80.28434 | 14 ft | 8 kts | 31° |
| 2026-05-05 17:20 | 25.79183 | -80.28407 | 14 ft | 8 kts | 17° |
| 2026-05-05 17:20 | 25.79233 | -80.28386 | 14 ft | 8 kts | 35° |
| 2026-05-05 17:20 | 25.79270 | -80.28343 | 14 ft | 8 kts | 44° |
| 2026-05-05 17:20 | 25.79307 | -80.28304 | 14 ft | 7 kts | 39° |
| 2026-05-05 17:21 | 25.79343 | -80.28265 | 14 ft | 7 kts | 51° |
| 2026-05-05 17:21 | 25.79364 | -80.28217 | 14 ft | 7 kts | 78° |
| 2026-05-05 17:21 | 25.79367 | -80.28164 | 14 ft | 7 kts | 74° |
| 2026-05-05 17:22 | 25.79408 | -80.28069 | 14 ft | 7 kts | 65° |
| 2026-05-05 17:22 | 25.79405 | -80.28045 | 14 ft | 0 kts | 135° |
| 2026-05-05 17:22 | 25.79403 | -80.28044 | 14 ft | 2 kts | 144° |
| 2026-05-05 17:22 | 25.79371 | -80.28034 | 14 ft | 5 kts | 163° |
| 2026-05-05 17:23 | 25.79364 | -80.28032 | 14 ft | 0 kts | 163° |